createdAt,value
2017-10-17T00:00:56.077Z,18.67
2017-10-17T00:03:22.386Z,22.17
2017-10-17T00:05:48.706Z,18.48
2017-10-17T00:08:15.011Z,16.48
2017-10-17T00:10:41.355Z,19.40
2017-10-17T00:13:08.455Z,21.85
2017-10-17T00:15:34.763Z,15.63
2017-10-17T00:18:01.099Z,18.62
2017-10-17T00:20:27.414Z,22.17
2017-10-17T00:22:53.738Z,19.62
2017-10-17T00:25:20.066Z,14.95
2017-10-17T00:27:46.436Z,20.25
2017-10-17T00:30:12.750Z,17.35
2017-10-17T00:32:40.610Z,21.55
2017-10-17T00:35:15.858Z,19.27
2017-10-17T00:37:42.154Z,20.48
2017-10-17T00:40:08.482Z,17.25
2017-10-17T00:42:34.803Z,18.65
2017-10-17T00:45:01.106Z,20.85
2017-10-17T00:47:27.451Z,20.70
2017-10-17T00:49:53.754Z,17.15
2017-10-17T00:52:20.034Z,16.52
2017-10-17T00:54:46.374Z,14.10
2017-10-17T00:57:12.682Z,19.75
2017-10-17T00:59:38.987Z,17.23
2017-10-17T01:02:05.334Z,15.75
2017-10-17T01:04:31.662Z,15.77
2017-10-17T01:06:57.979Z,20.92
2017-10-17T01:09:25.061Z,16.40
2017-10-17T01:11:51.366Z,16.40
2017-10-17T01:14:18.777Z,14.93
2017-10-17T01:16:45.091Z,14.32
2017-10-17T01:19:12.150Z,15.65
2017-10-17T01:21:38.482Z,15.15
2017-10-17T01:24:08.735Z,16.10
2017-10-17T01:26:35.046Z,17.67
2017-10-17T01:29:05.966Z,14.93
2017-10-17T01:31:32.282Z,17.05
2017-10-17T01:33:58.559Z,17.02
2017-10-17T01:36:24.891Z,18.87
2017-10-17T01:38:52.134Z,18.05
2017-10-17T01:41:18.426Z,14.05
2017-10-17T01:43:46.635Z,20.60
2017-10-17T01:46:15.730Z,15.68
2017-10-17T01:48:44.458Z,15.57
2017-10-17T01:51:21.582Z,14.80
2017-10-17T01:53:57.762Z,15.45
2017-10-17T01:56:24.843Z,15.55
2017-10-17T01:58:51.130Z,16.55
2017-10-17T02:01:17.482Z,14.00
2017-10-17T02:03:43.806Z,17.45
2017-10-17T02:06:10.838Z,16.62
2017-10-17T02:08:37.167Z,14.60
2017-10-17T02:11:03.450Z,18.02
2017-10-17T02:13:29.758Z,18.52
2017-10-17T02:15:56.163Z,17.50
2017-10-17T02:18:32.422Z,15.27
2017-10-17T02:21:00.506Z,14.00
2017-10-17T02:23:27.602Z,20.45
2017-10-17T02:26:00.611Z,17.95
2017-10-17T02:28:43.790Z,18.52
2017-10-17T02:31:10.866Z,15.35
2017-10-17T02:33:37.991Z,15.98
2017-10-17T02:36:04.310Z,15.35
2017-10-17T02:38:30.606Z,16.73
2017-10-17T02:40:56.954Z,14.38
2017-10-17T02:43:26.034Z,15.52
2017-10-17T02:45:52.357Z,14.75
2017-10-17T02:48:25.571Z,13.27
2017-10-17T02:50:51.874Z,18.08
2017-10-17T02:53:18.934Z,14.00
2017-10-17T02:55:45.964Z,20.23
2017-10-17T02:58:13.042Z,14.20
2017-10-17T03:00:39.375Z,14.10
2017-10-17T03:03:09.382Z,15.57
2017-10-17T03:05:36.633Z,15.45
2017-10-17T03:08:04.931Z,18.33
2017-10-17T03:10:31.267Z,16.65
2017-10-17T03:12:57.570Z,13.00
2017-10-17T03:15:24.642Z,14.32
2017-10-17T03:17:52.810Z,15.07
2017-10-17T03:20:21.946Z,21.27
2017-10-17T03:22:48.246Z,14.75
2017-10-17T03:25:16.579Z,12.40
2017-10-17T03:27:42.878Z,15.70
2017-10-17T03:30:09.983Z,14.60
2017-10-17T03:32:36.329Z,15.60
2017-10-17T03:35:04.531Z,15.52
2017-10-17T03:37:31.772Z,18.05
2017-10-17T03:40:04.834Z,15.98
2017-10-17T03:42:31.198Z,13.70
2017-10-17T03:44:57.534Z,17.55
2017-10-17T03:50:22.339Z,16.37
2017-10-17T03:52:48.690Z,16.75
2017-10-17T03:55:15.018Z,14.63
2017-10-17T03:57:47.082Z,16.42
2017-10-17T04:00:13.394Z,12.70
2017-10-17T04:02:39.682Z,17.27
2017-10-17T04:05:15.982Z,14.23
2017-10-17T04:07:43.843Z,14.48
2017-10-17T04:13:06.647Z,18.33
2017-10-17T04:15:33.722Z,14.80
2017-10-17T04:18:03.042Z,13.93
2017-10-17T04:20:35.358Z,13.35
2017-10-17T04:23:07.862Z,18.25
2017-10-17T04:25:35.082Z,15.80
2017-10-17T04:28:03.150Z,14.45
2017-10-17T04:30:43.062Z,17.52
2017-10-17T04:33:12.242Z,13.23
2017-10-17T04:35:39.471Z,15.93
2017-10-17T04:38:05.766Z,13.60
2017-10-17T04:40:32.074Z,16.10
2017-10-17T04:43:10.722Z,18.45
2017-10-17T04:45:57.939Z,17.40
2017-10-17T04:48:36.537Z,18.52
2017-10-17T04:51:22.509Z,14.98
2017-10-17T04:57:02.286Z,14.45
2017-10-17T04:59:48.682Z,17.00
2017-10-17T05:02:31.871Z,15.27
2017-10-17T05:05:01.865Z,17.60
2017-10-17T05:07:35.002Z,14.52
2017-10-17T05:10:03.295Z,23.83
2017-10-17T05:12:32.202Z,19.65
2017-10-17T05:14:58.523Z,16.35
2017-10-17T05:20:28.266Z,18.50
2017-10-17T05:23:04.343Z,17.52
2017-10-17T05:25:31.402Z,15.82
2017-10-17T05:30:48.460Z,36.13
2017-10-17T05:36:11.447Z,26.45
2017-10-17T05:38:37.766Z,15.38
2017-10-17T05:41:04.078Z,18.83
2017-10-17T05:46:22.190Z,20.27
2017-10-17T05:48:49.391Z,16.45
2017-10-17T05:51:23.630Z,17.55
2017-10-17T05:53:49.918Z,22.60
2017-10-17T05:56:16.158Z,22.77
2017-10-17T05:58:42.479Z,24.33
2017-10-17T06:01:09.104Z,26.17
2017-10-17T06:03:35.476Z,21.42
2017-10-17T06:06:01.900Z,22.37
2017-10-17T06:08:29.380Z,22.13
2017-10-17T06:10:56.511Z,23.05
2017-10-17T06:13:23.627Z,23.98
2017-10-17T06:15:50.287Z,18.98
2017-10-17T06:18:16.861Z,25.40
2017-10-17T06:20:43.308Z,22.55
2017-10-17T06:23:09.787Z,19.02
2017-10-17T06:25:36.243Z,25.90
2017-10-17T06:28:02.932Z,21.85
2017-10-17T06:30:29.376Z,29.40
2017-10-17T06:32:55.738Z,20.98
2017-10-17T06:35:22.192Z,19.30
2017-10-17T06:37:49.791Z,20.67
2017-10-17T06:40:16.307Z,18.55
2017-10-17T06:42:42.717Z,23.80
2017-10-17T06:45:09.846Z,21.48
2017-10-17T06:47:36.259Z,19.20
2017-10-17T06:50:03.016Z,22.52
2017-10-17T06:52:29.484Z,21.48
2017-10-17T06:54:55.835Z,22.80
2017-10-17T06:57:22.315Z,22.50
2017-10-17T06:59:48.700Z,23.85
2017-10-17T07:02:15.101Z,20.83
2017-10-17T07:04:41.575Z,25.10
2017-10-17T07:07:08.759Z,22.25
2017-10-17T07:09:35.639Z,20.05
2017-10-17T07:12:02.131Z,24.00
2017-10-17T07:14:28.928Z,21.30
2017-10-17T07:16:55.511Z,20.15
2017-10-17T07:19:21.977Z,22.00
2017-10-17T07:21:48.335Z,20.50
2017-10-17T07:24:14.799Z,21.80
2017-10-17T07:26:41.440Z,23.30
2017-10-17T07:29:07.871Z,21.07
2017-10-17T07:31:34.271Z,19.50
2017-10-17T07:34:00.756Z,19.20
2017-10-17T07:36:27.183Z,18.73
2017-10-17T07:38:53.624Z,17.37
2017-10-17T07:41:20.033Z,16.90
2017-10-17T07:43:46.473Z,16.47
2017-10-17T07:46:12.884Z,17.97
2017-10-17T07:48:39.751Z,15.87
2017-10-17T07:51:06.204Z,16.37
2017-10-17T07:53:32.602Z,20.43
2017-10-17T07:55:59.015Z,20.37
2017-10-17T07:58:25.692Z,17.57
2017-10-17T08:00:52.152Z,17.73
2017-10-17T08:03:18.528Z,17.60
2017-10-17T08:05:44.944Z,15.77
2017-10-17T08:08:11.950Z,19.63
2017-10-17T08:10:38.412Z,27.43
2017-10-17T08:13:04.747Z,32.57
2017-10-17T08:15:31.863Z,39.93
2017-10-17T08:17:59.392Z,42.10
2017-10-17T08:20:26.059Z,30.03
2017-10-17T08:22:52.436Z,27.30
2017-10-17T08:25:19.675Z,24.77
2017-10-17T08:27:46.148Z,19.83
2017-10-17T08:30:12.815Z,18.33
2017-10-17T08:32:39.204Z,19.57
2017-10-17T08:35:05.551Z,19.13
2017-10-17T08:37:31.940Z,18.93
2017-10-17T08:39:58.348Z,16.63
2017-10-17T08:42:24.759Z,18.83
2017-10-17T08:44:51.126Z,16.23
2017-10-17T08:47:17.576Z,18.90
2017-10-17T08:49:44.392Z,20.30
2017-10-17T08:52:10.962Z,20.73
2017-10-17T08:54:37.364Z,20.77
2017-10-17T08:57:03.727Z,19.63
2017-10-17T08:59:30.849Z,24.50
2017-10-17T09:01:57.263Z,27.90
2017-10-17T09:04:24.171Z,23.67
2017-10-17T09:06:52.724Z,25.43
2017-10-17T09:09:19.163Z,24.70
2017-10-17T09:11:46.619Z,22.17
2017-10-17T09:14:13.007Z,28.20
2017-10-17T09:16:39.395Z,27.73
2017-10-17T09:19:05.755Z,29.07
2017-10-17T09:21:32.159Z,27.80
2017-10-17T09:23:58.596Z,26.27
2017-10-17T09:26:24.971Z,25.23
2017-10-17T09:28:51.349Z,26.27
2017-10-17T09:31:18.444Z,31.13
2017-10-17T09:33:44.795Z,31.83
2017-10-17T09:36:11.171Z,37.80
2017-10-17T09:38:38.028Z,30.80
2017-10-17T09:41:04.923Z,33.77
2017-10-17T09:43:31.375Z,35.70
2017-10-17T09:45:57.818Z,39.77
2017-10-17T09:48:24.199Z,42.17
2017-10-17T09:50:51.092Z,41.93
2017-10-17T09:53:17.541Z,37.40
2017-10-17T09:58:37.215Z,40.97
2017-10-17T10:01:04.295Z,40.10
2017-10-17T10:03:30.579Z,40.50
2017-10-17T10:05:56.882Z,35.70
2017-10-17T10:08:23.926Z,34.90
2017-10-17T10:10:50.565Z,31.97
2017-10-17T10:13:16.882Z,31.13
2017-10-17T10:15:43.142Z,30.17
2017-10-17T10:18:09.423Z,28.87
2017-10-17T10:20:35.810Z,35.13
2017-10-17T10:23:03.238Z,34.20
2017-10-17T10:25:29.512Z,29.50
2017-10-17T10:27:55.791Z,36.40
2017-10-17T10:30:22.235Z,36.63
2017-10-17T10:32:48.600Z,40.53
2017-10-17T10:35:15.775Z,35.40
2017-10-17T10:37:42.152Z,33.67
2017-10-17T10:40:09.414Z,32.53
2017-10-17T10:42:35.830Z,34.43
2017-10-17T10:45:02.260Z,33.83
2017-10-17T10:47:28.663Z,35.07
2017-10-17T10:49:55.051Z,37.33
2017-10-17T10:52:21.640Z,31.97
2017-10-17T10:54:48.020Z,34.73
2017-10-17T10:57:14.422Z,29.63
2017-10-17T10:59:40.792Z,25.30
2017-10-17T11:02:07.290Z,26.40
2017-10-17T11:04:33.755Z,28.83
2017-10-17T11:07:01.391Z,24.27
2017-10-17T11:09:27.830Z,25.97
2017-10-17T11:11:54.211Z,25.40
2017-10-17T11:14:20.617Z,31.87
2017-10-17T11:16:47.000Z,28.00
2017-10-17T11:19:13.430Z,26.93
2017-10-17T11:21:40.064Z,23.63
2017-10-17T11:24:06.483Z,25.20
2017-10-17T11:26:32.887Z,28.73
2017-10-17T11:28:59.533Z,23.03
2017-10-17T11:31:27.081Z,29.83
2017-10-17T11:33:53.510Z,23.43
2017-10-17T11:36:20.731Z,24.90
2017-10-17T11:38:47.131Z,23.23
2017-10-17T11:41:25.855Z,25.47
2017-10-17T11:43:52.287Z,22.50
2017-10-17T11:46:18.675Z,26.67
2017-10-17T11:48:45.130Z,23.17
2017-10-17T11:51:11.516Z,22.33
2017-10-17T11:53:37.900Z,18.77
2017-10-17T11:56:04.412Z,17.83
2017-10-17T11:58:30.791Z,21.10
2017-10-17T12:00:57.992Z,19.37
2017-10-17T12:03:24.399Z,18.37
2017-10-17T12:05:50.811Z,20.03
2017-10-17T12:08:17.161Z,22.70
2017-10-17T12:10:43.563Z,23.23
2017-10-17T12:13:09.971Z,19.97
2017-10-17T12:15:36.384Z,22.00
2017-10-17T12:18:02.807Z,19.10
2017-10-17T12:20:30.268Z,24.30
2017-10-17T12:22:56.636Z,22.10
2017-10-17T12:25:23.058Z,18.50
2017-10-17T12:27:49.751Z,24.77
2017-10-17T12:30:17.983Z,24.40
2017-10-17T12:32:44.429Z,19.63
2017-10-17T12:35:10.867Z,20.70
2017-10-17T12:37:37.288Z,18.80
2017-10-17T12:40:03.735Z,20.27
2017-10-17T12:42:30.114Z,22.93
2017-10-17T12:44:56.452Z,26.13
2017-10-17T12:47:22.835Z,18.17
2017-10-17T12:49:49.240Z,25.20
2017-10-17T12:52:16.373Z,20.73
2017-10-17T12:54:43.491Z,18.63
2017-10-17T12:57:10.691Z,21.30
2017-10-17T12:59:37.107Z,21.30
2017-10-17T13:02:03.505Z,20.70
2017-10-17T13:04:29.994Z,19.33
2017-10-17T13:06:56.463Z,17.40
2017-10-17T13:09:22.879Z,22.03
2017-10-17T13:11:49.272Z,17.47
2017-10-17T13:14:15.655Z,18.20
2017-10-17T13:16:42.127Z,19.53
2017-10-17T13:19:08.548Z,16.00
2017-10-17T13:21:35.048Z,13.10
2017-10-17T13:24:01.496Z,26.13
2017-10-17T13:26:27.863Z,15.93
2017-10-17T13:28:54.266Z,14.37
2017-10-17T13:31:20.672Z,13.67
2017-10-17T13:33:47.043Z,18.30
2017-10-17T13:36:13.491Z,18.10
2017-10-17T13:38:39.864Z,18.90
2017-10-17T13:41:06.235Z,19.13
2017-10-17T13:43:32.626Z,16.80
2017-10-17T13:45:58.985Z,21.30
2017-10-17T13:48:25.392Z,17.00
2017-10-17T13:50:51.756Z,16.53
2017-10-17T13:53:18.164Z,19.70
2017-10-17T13:55:44.558Z,12.90
2017-10-17T13:58:10.904Z,17.30
2017-10-17T14:00:37.324Z,14.90
2017-10-17T14:03:03.723Z,16.27
2017-10-17T14:05:30.084Z,16.13
2017-10-17T14:07:56.472Z,16.97
2017-10-17T14:10:22.892Z,20.00
2017-10-17T14:12:49.347Z,14.77
2017-10-17T14:15:15.717Z,20.40
2017-10-17T14:17:42.143Z,15.77
2017-10-17T14:20:08.538Z,22.67
2017-10-17T14:22:34.892Z,22.23
2017-10-17T14:25:02.076Z,15.80
2017-10-17T14:27:28.461Z,19.60
2017-10-17T14:29:54.931Z,14.67
2017-10-17T14:32:22.371Z,21.23
2017-10-17T14:34:48.791Z,44.43
2017-10-17T14:37:15.131Z,32.60
2017-10-17T14:39:41.499Z,31.13
2017-10-17T14:42:07.876Z,27.90
2017-10-17T14:44:35.251Z,31.30
2017-10-17T14:47:01.667Z,21.53
2017-10-17T14:49:28.755Z,20.63
2017-10-17T14:51:55.128Z,23.50
2017-10-17T14:54:21.541Z,16.67
2017-10-17T14:56:47.933Z,16.70
2017-10-17T14:59:14.311Z,15.70
2017-10-17T15:01:41.455Z,24.30
2017-10-17T15:04:07.816Z,18.67
2017-10-17T15:06:34.240Z,20.43
2017-10-17T15:09:00.628Z,20.30
2017-10-17T15:11:27.755Z,20.50
2017-10-17T15:13:54.115Z,23.13
2017-10-17T15:16:20.563Z,19.07
2017-10-17T15:18:46.991Z,28.83
2017-10-17T15:21:13.363Z,20.63
2017-10-17T15:23:39.795Z,22.80
2017-10-17T15:26:06.200Z,24.23
2017-10-17T15:28:32.587Z,17.67
2017-10-17T15:30:59.028Z,18.87
2017-10-17T15:33:25.399Z,19.93
2017-10-17T15:35:51.858Z,20.53
2017-10-17T15:38:18.247Z,18.20
2017-10-17T15:40:44.644Z,21.47
2017-10-17T15:43:11.011Z,26.63
2017-10-17T15:45:37.395Z,19.30
2017-10-17T15:48:03.817Z,18.13
2017-10-17T15:50:30.933Z,18.43
2017-10-17T15:52:57.307Z,28.03
2017-10-17T15:55:23.731Z,20.37
2017-10-17T15:57:50.079Z,20.20
2017-10-17T16:00:16.459Z,19.07
2017-10-17T16:02:42.823Z,19.30
2017-10-17T16:05:09.962Z,25.43
2017-10-17T16:07:37.085Z,18.47
2017-10-17T16:10:03.543Z,17.73
2017-10-17T16:12:29.904Z,16.80
2017-10-17T16:14:56.419Z,18.47
2017-10-17T16:17:22.820Z,19.17
2017-10-17T16:19:49.219Z,19.10
2017-10-17T16:22:15.601Z,21.90
2017-10-17T16:24:42.027Z,19.47
2017-10-17T16:27:08.730Z,18.63
2017-10-17T16:29:35.617Z,20.97
2017-10-17T16:32:01.998Z,18.17
2017-10-17T16:34:28.493Z,21.13
2017-10-17T16:36:54.843Z,17.37
2017-10-17T16:39:21.223Z,18.23
2017-10-17T16:41:47.592Z,19.90
2017-10-17T16:44:14.033Z,17.00
2017-10-17T16:46:41.185Z,19.27
2017-10-17T16:49:07.588Z,20.13
2017-10-17T16:51:34.012Z,17.07
2017-10-17T16:54:01.139Z,21.20
2017-10-17T16:56:27.531Z,16.97
2017-10-17T16:58:53.972Z,21.97
2017-10-17T17:01:20.389Z,17.90
2017-10-17T17:03:46.824Z,22.40
2017-10-17T17:06:13.269Z,20.77
2017-10-17T17:08:39.669Z,21.57
2017-10-17T17:11:06.790Z,24.40
2017-10-17T17:13:33.960Z,23.40
2017-10-17T17:16:01.620Z,19.63
2017-10-17T17:18:29.811Z,22.10
2017-10-17T17:20:56.826Z,22.43
2017-10-17T17:23:25.224Z,25.03
2017-10-17T17:25:53.422Z,19.13
2017-10-17T17:28:21.145Z,21.17
2017-10-17T17:30:49.144Z,21.67
2017-10-17T17:33:17.708Z,23.90
2017-10-17T17:35:45.536Z,25.63
2017-10-17T17:38:13.549Z,21.53
2017-10-17T17:40:41.304Z,25.37
2017-10-17T17:43:09.233Z,26.87
2017-10-17T17:45:37.275Z,19.80
2017-10-17T17:48:10.198Z,26.70
2017-10-17T17:50:39.727Z,28.13
2017-10-17T17:53:07.715Z,25.07
2017-10-17T17:55:35.745Z,24.00
2017-10-17T17:58:03.726Z,26.37
2017-10-17T18:00:31.758Z,24.50
2017-10-17T18:02:59.778Z,20.80
2017-10-17T18:05:28.938Z,24.77
2017-10-17T18:07:58.155Z,20.67
2017-10-17T18:10:27.307Z,20.33
2017-10-17T18:12:55.528Z,23.43
2017-10-17T18:15:23.598Z,22.60
2017-10-17T18:17:51.582Z,25.13
2017-10-17T18:20:19.558Z,23.10
2017-10-17T18:22:47.679Z,21.43
2017-10-17T18:25:15.784Z,22.37
2017-10-17T18:27:44.574Z,23.13
2017-10-17T18:30:12.480Z,23.73
2017-10-17T18:32:40.613Z,21.80
2017-10-17T18:35:08.658Z,21.87
2017-10-17T18:37:36.810Z,19.47
2017-10-17T18:40:05.590Z,22.03
2017-10-17T18:42:34.310Z,20.40
2017-10-17T18:45:05.087Z,25.13
2017-10-17T18:47:33.026Z,21.93
2017-10-17T18:50:01.103Z,21.70
2017-10-17T18:52:30.039Z,18.77
2017-10-17T18:54:58.841Z,20.70
2017-10-17T18:57:27.862Z,18.37
2017-10-17T18:59:56.585Z,24.67
2017-10-17T19:02:26.341Z,18.03
2017-10-17T19:04:54.522Z,20.63
2017-10-17T19:07:22.460Z,20.23
2017-10-17T19:09:51.227Z,17.90
2017-10-17T19:12:19.161Z,21.90
2017-10-17T19:14:47.343Z,25.53
2017-10-17T19:17:15.254Z,18.90
2017-10-17T19:19:43.349Z,18.17
2017-10-17T19:22:11.349Z,19.23
2017-10-17T19:24:39.522Z,17.77
2017-10-17T19:27:07.441Z,16.30
2017-10-17T19:29:37.324Z,19.67
2017-10-17T19:32:05.465Z,22.00
2017-10-17T19:34:33.826Z,20.70
2017-10-17T19:37:01.742Z,17.43
2017-10-17T19:39:31.702Z,17.00
2017-10-17T19:41:59.885Z,19.00
2017-10-17T19:44:28.066Z,18.40
2017-10-17T19:46:57.093Z,17.07
2017-10-17T19:49:25.102Z,19.53
2017-10-17T19:51:53.763Z,24.10
2017-10-17T19:54:21.923Z,22.60
2017-10-17T19:56:50.588Z,21.00
2017-10-17T19:59:19.117Z,23.47
2017-10-17T20:01:49.307Z,23.57
2017-10-17T20:04:17.471Z,23.87
2017-10-17T20:06:47.113Z,21.90
2017-10-17T20:09:17.159Z,19.33
2017-10-17T20:11:45.344Z,29.53
2017-10-17T20:14:14.139Z,22.30
2017-10-17T20:16:42.216Z,22.37
2017-10-17T20:19:12.167Z,21.03
2017-10-17T20:21:40.783Z,19.83
2017-10-17T20:24:08.821Z,21.33
2017-10-17T20:26:36.860Z,23.40
2017-10-17T20:29:05.847Z,23.23
2017-10-17T20:31:34.927Z,23.23
2017-10-17T20:34:03.879Z,19.43
2017-10-17T20:36:31.892Z,18.70
2017-10-17T20:38:59.928Z,24.00
2017-10-17T20:41:27.992Z,23.07
2017-10-17T20:43:56.737Z,23.53
2017-10-17T20:46:24.802Z,21.67
2017-10-17T20:48:52.777Z,18.00
2017-10-17T20:51:20.820Z,20.23
2017-10-17T20:53:49.562Z,18.50
2017-10-17T20:56:17.412Z,20.57
2017-10-17T20:58:45.512Z,20.97
2017-10-17T21:01:13.369Z,19.10
2017-10-17T21:03:42.088Z,21.77
2017-10-17T21:06:10.132Z,21.53
2017-10-17T21:08:38.043Z,19.13
2017-10-17T21:11:05.996Z,19.87
2017-10-17T21:13:34.990Z,24.00
2017-10-17T21:16:02.963Z,23.03
2017-10-17T21:18:31.002Z,20.03
2017-10-17T21:20:58.877Z,25.00
2017-10-17T21:23:26.758Z,20.20
2017-10-17T21:25:54.667Z,18.83
2017-10-17T21:28:22.500Z,25.00
2017-10-17T21:30:51.291Z,19.10
2017-10-17T21:33:19.129Z,25.67
2017-10-17T21:35:47.054Z,21.10
2017-10-17T21:38:15.003Z,20.47
2017-10-17T21:40:42.217Z,26.30
2017-10-17T21:43:09.317Z,23.60
2017-10-17T21:45:36.291Z,23.83
2017-10-17T21:48:02.850Z,18.37
2017-10-17T21:50:29.671Z,19.37
2017-10-17T21:52:56.207Z,22.27
2017-10-17T21:55:23.299Z,19.63
2017-10-17T21:57:49.720Z,18.23
2017-10-17T22:00:17.154Z,20.07
2017-10-17T22:02:43.591Z,19.83
2017-10-17T22:05:10.752Z,20.43
2017-10-17T22:07:37.123Z,19.93
2017-10-17T22:10:03.584Z,20.27
2017-10-17T22:12:30.004Z,17.97
2017-10-17T22:14:57.135Z,20.33
2017-10-17T22:17:24.271Z,19.70
2017-10-17T22:19:50.664Z,16.70
2017-10-17T22:22:17.809Z,16.27
2017-10-17T22:24:44.207Z,18.80
2017-10-17T22:27:10.575Z,21.20
2017-10-17T22:29:37.698Z,17.50
2017-10-17T22:32:04.823Z,17.03
2017-10-17T22:34:31.227Z,23.17
2017-10-17T22:36:58.420Z,20.43
2017-10-17T22:39:24.935Z,19.70
2017-10-17T22:41:51.347Z,18.07
2017-10-17T22:44:18.733Z,20.77
2017-10-17T22:46:45.110Z,18.00
2017-10-17T22:49:11.543Z,16.90
2017-10-17T22:51:37.915Z,17.17
2017-10-17T22:54:04.295Z,14.93
2017-10-17T22:56:31.447Z,15.57
2017-10-17T22:58:58.595Z,18.77
2017-10-17T23:01:25.714Z,20.10
2017-10-17T23:03:52.135Z,20.23
2017-10-17T23:06:19.279Z,17.93
2017-10-17T23:08:45.688Z,23.03
2017-10-17T23:11:12.095Z,17.27
2017-10-17T23:13:38.451Z,24.63
2017-10-17T23:16:04.835Z,21.85
2017-10-17T23:18:43.523Z,18.73
2017-10-17T23:21:09.952Z,19.90
2017-10-17T23:23:36.368Z,17.98
2017-10-17T23:26:03.512Z,17.90
2017-10-17T23:28:29.915Z,18.13
2017-10-17T23:30:56.342Z,19.20
2017-10-17T23:33:24.530Z,18.70
2017-10-17T23:35:50.931Z,15.65
2017-10-17T23:38:17.360Z,18.90
2017-10-17T23:40:43.742Z,20.50
2017-10-17T23:43:10.839Z,20.03
2017-10-17T23:45:37.276Z,19.40
2017-10-17T23:48:04.400Z,20.23
2017-10-17T23:50:31.560Z,19.90
2017-10-17T23:52:57.943Z,19.85
2017-10-17T23:55:24.356Z,21.58
2017-10-17T23:57:50.715Z,19.10
